Latest Weather Observations for Amberley

IDQ60901

Issued at 10:31 pm EST Thursday 28 May 2015 (issued every 10 minutes, with the page automatically refreshed every 10 minutes)

About weather observations | Map of Brisbane area stations | Latest observations for Brisbane area | Other Formats
Station Details ID: 040004 Name: AMBERLEY AMO Lat: -27.63 Lon: 152.71 Height: 24.2 m
Data from the previous 72 hours. | See also: Recent months at Amberley
Date/Time
EST
Tmp

°C
App
Tmp
°C
Dew
Point
°C
Rel
Hum
%
Delta-T

°C
Wind Press
QNH
hPa
Press
MSL
hPa
Rain
since
9 am
mm
Dir
 
Spd
km/h
Gust
km/h
Spd
kts
Gust
kts
28/10:03pm 12.1 12.6 11.7 97 0.2 CALM 0 0 0 0 1024.1 - 0.0
28/10:00pm 12.4 13.0 11.8 96 0.3 CALM 0 0 0 0 1024.0 - 0.0
28/09:30pm 12.5 13.2 12.1 97 0.2 CALM 0 0 0 0 1024.1 - 0.0
28/09:25pm 12.5 13.2 12.1 97 0.2 CALM 0 0 0 0 1024.0 - 0.0
28/09:03pm 12.9 13.6 12.3 96 0.3 CALM 0 0 0 0 1024.1 - 0.0
28/09:00pm 12.9 13.7 12.5 97 0.2 CALM 0 0 0 0 1024.1 1024.1 0.0
28/08:30pm 13.1 14.1 13.1 100 0.0 CALM 0 0 0 0 1023.9 - 0.0
28/08:29pm 13.7 14.7 13.2 97 0.3 CALM 0 0 0 0 1023.9 - 0.0
28/08:23pm 13.4 14.3 12.8 96 0.3 CALM 0 0 0 0 1023.8 - 0.0
28/08:11pm 13.5 14.5 13.3 99 0.1 CALM 0 0 0 0 1023.8 - 0.0
28/08:00pm 13.9 15.0 13.4 97 0.3 CALM 0 0 0 0 1023.8 - 0.0
28/07:30pm 14.2 15.2 13.3 94 0.5 CALM 0 0 0 0 1023.4 - 0.0
28/07:00pm 14.7 15.7 13.3 91 0.8 CALM 0 0 0 0 1023.0 - 0.0
28/06:30pm 15.2 16.5 14.1 93 0.6 CALM 0 0 0 0 1022.8 - 0.0
28/05:30pm 18.2 19.5 14.0 76 2.4 CALM 0 0 0 0 1022.0 - 0.0
28/05:00pm 20.1 21.3 13.8 67 3.6 CALM 0 0 0 0 1021.9 - 0.0
28/04:30pm 21.6 21.8 13.2 59 4.8 N 4 7 2 4 1021.7 - 0.0
28/04:00pm 22.4 21.9 12.5 53 5.6 NNE 7 9 4 5 1021.6 - 0.0
28/03:30pm 22.5 21.5 12.2 52 5.8 N 9 11 5 6 1021.7 - 0.0
28/03:00pm 23.1 22.1 12.4 51 6.1 N 9 15 5 8 1021.6 1021.6 0.0
28/02:30pm 23.5 22.9 12.4 49 6.3 NW 7 15 4 8 1021.7 - 0.0
28/02:00pm 23.0 21.8 12.9 53 5.8 N 11 15 6 8 1021.6 - 0.0
28/01:30pm 22.5 22.3 13.5 56 5.2 N 7 13 4 7 1022.1 - 0.0
28/01:00pm 22.1 22.1 14.2 61 4.6 NNW 7 11 4 6 1022.4 - 0.0
28/12:30pm 22.3 22.0 14.4 61 4.6 WNW 9 17 5 9 1023.2 - 0.0
28/12:00pm 22.1 22.4 14.6 62 4.4 WNW 6 13 3 7 1023.8 1023.8 0.0
28/11:30am 20.8 21.3 15.0 69 3.4 WSW 6 9 3 5 1024.3 - 0.0
28/11:00am 19.2 19.7 15.1 77 2.4 W 6 11 3 6 1024.7 - 0.0
28/10:30am 18.7 19.6 15.1 79 2.1 N 4 9 2 5 1025.1 - 0.0
28/10:23am 18.8 19.7 15.0 78 2.2 NW 4 9 2 5 1025.4 - 0.0
28/09:43am 16.2 17.7 14.6 90 0.9 CALM 0 0 0 0 1025.6 - 0.0
28/09:30am 15.1 16.4 14.0 93 0.6 CALM 0 0 0 0 1025.6 - 0.0
28/09:00am 13.6 13.8 13.2 97 0.2 SW 4 7 2 4 1025.5 1025.4 0.0
28/08:30am 12.5 12.1 12.3 99 0.1 WNW 6 9 3 5 1025.4 - 0.0
28/08:00am 11.7 11.7 11.3 97 0.2 WSW 2 7 1 4 1025.0 - 0.0
28/07:30am 11.4 10.7 11.4 100 0.0 SW 6 7 3 4 1024.8 - 0.0
28/07:00am 10.8 9.8 10.4 97 0.2 SW 6 7 3 4 1024.4 - 0.0
28/05:30am 9.7 9.6 9.3 97 0.2 CALM 0 0 0 0 1023.1 - 0.0
28/05:00am 9.3 9.1 9.1 99 0.1 CALM 0 0 0 0 1023.0 - 0.0
28/04:30am 9.4 9.2 9.0 97 0.2 CALM 0 0 0 0 1023.1 - 0.0
28/04:00am 9.3 9.1 9.1 99 0.1 CALM 0 0 0 0 1023.1 - 0.0
28/03:51am 9.4 9.2 9.0 97 0.2 CALM 0 0 0 0 1023.2 - 0.0
28/03:37am 9.3 9.1 8.9 97 0.2 CALM 0 0 0 0 1023.1 - 0.0
28/03:30am 9.8 9.7 9.4 97 0.2 CALM 0 0 0 0 1023.1 - 0.0
28/03:00am 10.4 10.5 10.2 99 0.1 CALM 0 4 0 2 1023.2 1023.2 0.0
28/02:30am 10.0 7.8 9.4 96 0.3 NW 11 11 6 6 1023.0 - 0.0
28/02:00am 9.6 8.1 9.2 97 0.2 SW 7 9 4 5 1023.2 - 0.0
28/01:51am 10.0 8.9 9.8 99 0.1 SW 6 7 3 4 1023.1 - 0.0
28/01:30am 9.7 8.2 9.3 97 0.2 SW 7 7 4 4 1023.2 - 0.0
28/12:30am 10.6 9.3 9.8 95 0.4 SW 7 9 4 5 1023.6 - 0.0
 
Date/Time
EST
Tmp

°C
App
Tmp
°C
Dew
Point
°C
Rel
Hum
%
Delta-T

°C
Wind Press
QNH
hPa
Press
MSL
hPa
Rain
since
9 am
mm
Dir
 
Spd
km/h
Gust
km/h
Spd
kts
Gust
kts
27/11:30pm 11.5 11.9 11.1 97 0.2 CALM 0 0 0 0 1023.6 - 0.0
27/11:00pm 11.2 11.4 10.6 96 0.3 CALM 0 0 0 0 1023.8 - 0.0
27/10:30pm 11.4 11.7 11.0 97 0.2 CALM 0 2 0 1 1023.7 - 0.0
27/10:00pm 11.5 11.9 11.1 97 0.2 CALM 0 7 0 4 1023.5 - 0.0
27/09:30pm 12.0 12.4 11.2 95 0.4 CALM 0 0 0 0 1023.4 - 0.0
27/09:00pm 13.1 13.0 12.2 94 0.5 E 4 7 2 4 1023.4 1023.4 0.0
27/08:30pm 14.9 15.0 13.8 93 0.6 E 6 7 3 4 1023.4 - 0.0
27/08:00pm 15.2 14.9 13.4 89 1.0 E 7 7 4 4 1023.3 - 0.0
27/07:30pm 15.8 15.4 14.0 89 1.0 E 9 11 5 6 1023.2 - 0.0
27/07:00pm 14.8 13.8 12.4 85 1.3 E 9 11 5 6 1022.7 - 0.0
27/06:30pm 16.2 15.4 12.9 81 1.8 E 9 11 5 6 1022.4 - 0.0
27/06:00pm 15.1 14.5 12.3 83 1.5 ESE 7 9 4 5 1022.1 1022.1 0.0
27/05:30pm 17.1 18.1 13.2 78 2.2 CALM 0 7 0 4 1021.9 - 0.0
27/05:00pm 18.9 18.4 12.8 67 3.4 NNE 7 7 4 4 1021.8 - 0.0
27/04:30pm 21.1 21.9 12.6 58 4.8 CALM 0 0 0 0 1021.8 - 0.0
27/04:00pm 21.8 22.2 12.6 56 5.2 N 2 7 1 4 1021.7 - 0.0
27/03:30pm 22.9 21.8 10.7 46 6.7 SSE 7 11 4 6 1021.3 - 0.0
27/03:00pm 22.4 22.2 11.9 51 5.9 ENE 4 7 2 4 1021.4 1021.4 0.0
27/02:30pm 21.3 22.1 12.6 57 4.9 CALM 0 0 0 0 1021.7 - 0.0
27/02:00pm 21.7 20.6 11.9 53 5.5 NNE 9 15 5 8 1021.8 - 0.0
27/01:30pm 22.4 21.3 12.1 52 5.8 NE 9 15 5 8 1021.9 - 0.0
27/01:00pm 23.1 24.0 13.0 53 5.8 CALM 0 7 0 4 1022.4 - 0.0
27/12:30pm 21.7 21.2 12.5 56 5.2 WNW 7 11 4 6 1022.9 - 0.0
27/12:00pm 21.7 21.5 12.9 57 5.0 N 6 11 3 6 1023.6 1023.6 0.0
27/11:30am 21.0 20.5 12.2 57 4.9 SW 6 9 3 5 1024.5 - 0.0
27/11:00am 20.2 19.8 12.3 60 4.4 NNW 6 11 3 6 1025.1 - 0.0
27/10:30am 18.9 19.0 12.8 67 3.4 S 4 9 2 5 1025.4 - 0.0
27/10:00am 18.0 18.6 13.2 73 2.7 S 2 9 1 5 1025.6 - 0.0
27/09:30am 16.8 17.9 13.4 80 1.9 CALM 0 7 0 4 1025.9 - 0.0
27/09:00am 14.3 13.8 12.6 89 0.9 NNW 7 9 4 5 1026.0 - 0.0
27/08:30am 13.1 12.4 12.0 93 0.6 NNW 7 9 4 5 1025.6 - 0.0
27/08:00am 13.3 13.9 12.0 92 0.7 CALM 0 0 0 0 1025.6 - 0.0
27/07:30am 10.9 11.0 10.1 95 0.4 CALM 0 0 0 0 1025.2 - 0.0
27/07:00am 8.9 8.6 8.5 97 0.2 CALM 0 0 0 0 1024.9 - 0.0
27/06:30am 8.8 8.4 8.4 97 0.2 CALM 0 0 0 0 1024.8 - 0.0
27/06:00am 9.0 8.7 8.6 97 0.2 CALM 0 0 0 0 1024.8 1024.7 0.0
27/05:59am 8.9 8.7 8.9 100 0.0 CALM 0 0 0 0 1024.8 - 0.0
27/05:30am 9.0 7.9 8.6 97 0.2 SW 4 7 2 4 1024.4 - 0.0
27/05:00am 10.4 9.7 10.0 97 0.2 W 4 7 2 4 1023.8 - 0.0
27/04:30am 9.5 7.2 9.1 97 0.2 WNW 11 11 6 6 1023.8 - 0.0
27/04:02am 9.3 7.3 8.7 96 0.3 NW 9 11 5 6 1023.9 - 0.0
27/04:00am 9.0 6.6 8.6 97 0.2 WNW 11 11 6 6 1023.9 - 0.0
27/03:30am 9.3 7.8 9.1 99 0.1 WSW 7 7 4 4 1024.0 - 0.0
27/03:07am 10.0 9.9 9.6 97 0.2 CALM 0 0 0 0 1024.3 - 0.0
27/03:00am 10.2 10.2 9.8 97 0.2 CALM 0 0 0 0 1024.4 1024.3 0.0
27/02:43am 9.7 8.9 9.7 100 0.0 SW 4 7 2 4 1024.6 - 0.0
27/02:30am 9.9 9.8 9.5 97 0.2 CALM 0 0 0 0 1024.5 - 0.0
27/02:28am 10.0 9.9 9.6 97 0.2 CALM 0 6 0 3 1024.5 - 0.0
27/02:00am 9.7 8.4 9.3 97 0.2 SW 6 7 3 4 1024.7 - 0.0
27/01:30am 9.9 9.9 9.7 99 0.1 CALM 0 0 0 0 1024.5 - 0.0
27/01:21am 10.3 10.4 10.1 99 0.1 CALM 0 0 0 0 1024.6 - 0.0
27/01:16am 10.3 10.3 9.9 97 0.2 CALM 0 0 0 0 1024.6 - 0.0
27/01:00am 10.7 10.9 10.5 99 0.1 CALM 0 0 0 0 1024.5 - 0.0
27/12:33am 10.3 10.4 10.3 100 0.0 CALM 0 0 0 0 1024.8 - 0.0
27/12:32am 10.4 10.6 10.4 100 0.0 CALM 0 0 0 0 1024.8 - 0.0
27/12:30am 10.6 10.8 10.4 99 0.1 CALM 0 0 0 0 1024.8 - 0.0
27/12:22am 10.2 10.3 10.0 99 0.1 CALM 0 0 0 0 1024.8 - 0.0
27/12:00am 10.8 9.7 10.8 100 0.0 SW 7 9 4 5 1024.9 1024.8 0.0
 
Date/Time
EST
Tmp

°C
App
Tmp
°C
Dew
Point
°C
Rel
Hum
%
Delta-T

°C
Wind Press
QNH
hPa
Press
MSL
hPa
Rain
since
9 am
mm
Dir
 
Spd
km/h
Gust
km/h
Spd
kts
Gust
kts
26/11:42pm 11.4 11.6 10.6 95 0.4 CALM 0 7 0 4 1024.9 - 0.0
26/11:30pm 11.2 11.5 10.8 97 0.2 CALM 0 0 0 0 1025.1 - 0.0
26/11:00pm 11.6 12.1 11.6 100 0.0 CALM 0 0 0 0 1025.0 - 0.0
26/10:30pm 13.0 13.8 12.4 96 0.3 CALM 0 0 0 0 1025.6 - 0.0
26/10:00pm 12.8 13.2 12.6 99 0.1 SW 2 6 1 3 1025.7 - 0.0
26/09:45pm 12.6 12.1 12.0 96 0.3 SW 6 7 3 4 1025.8 - 0.0
26/09:30pm 14.5 14.2 13.2 92 0.7 SW 7 7 4 4 1025.7 - 0.0
26/09:00pm 14.7 14.7 13.6 93 0.6 W 6 11 3 6 1025.5 1025.4 0.0
26/08:30pm 14.8 16.0 13.7 93 0.6 CALM 0 0 0 0 1025.4 - 0.0
26/08:00pm 15.2 16.0 13.6 90 0.9 ENE 2 6 1 3 1025.7 - 0.0
26/07:30pm 16.2 17.4 13.9 86 1.3 CALM 0 0 0 0 1025.9 - 0.0
26/07:00pm 16.8 16.8 14.2 85 1.5 E 7 9 4 5 1025.5 - 0.0
26/06:30pm 16.6 16.8 14.1 85 1.4 E 6 13 3 7 1025.4 - 0.0
26/06:00pm 16.8 18.2 14.3 85 1.4 CALM 0 0 0 0 1025.4 1025.3 0.0
26/05:30pm 17.9 19.2 14.2 79 2.1 CALM 0 0 0 0 1024.6 - 0.0
26/05:00pm 18.9 20.0 13.6 71 3.0 CALM 0 0 0 0 1024.4 - 0.0
26/04:30pm 20.2 21.2 13.3 64 3.9 CALM 0 0 0 0 1024.6 - 0.0
26/04:00pm 20.7 20.8 13.9 65 3.9 ESE 6 7 3 4 1024.1 - 0.0
26/03:30pm 21.2 20.1 11.9 55 5.2 ESE 9 11 5 6 1023.8 - 0.0
26/03:00pm 21.6 21.6 11.3 52 5.7 ESE 2 9 1 5 1024.1 1024.1 0.0
26/02:30pm 21.6 21.4 11.7 53 5.5 E 4 11 2 6 1024.4 - 0.0
26/02:00pm 21.7 21.6 10.7 49 6.0 S 2 9 1 5 1024.7 - 0.0
26/01:30pm 22.0 20.6 10.9 49 6.1 S 9 11 5 6 1025.2 - 0.0
26/01:00pm 21.6 21.2 11.0 51 5.8 NW 4 7 2 4 1025.5 - 0.0
26/12:30pm 21.2 20.0 11.6 54 5.3 SSE 9 13 5 7 1026.0 - 0.0
26/12:00pm 21.2 20.6 11.6 54 5.3 NE 6 11 3 6 1026.6 1026.5 0.0
26/11:30am 20.7 20.0 11.4 55 5.1 WSW 6 11 3 6 1027.6 - 0.0
26/11:00am 19.8 19.2 11.6 59 4.5 SSW 6 9 3 5 1028.0 - 0.0
26/10:30am 18.8 18.2 11.7 63 3.9 SSW 6 11 3 6 1028.4 - 0.0
26/10:00am 17.8 17.1 11.9 68 3.2 SSW 7 11 4 6 1028.5 - 0.0
26/09:30am 16.5 16.3 11.9 74 2.5 SSW 4 7 2 4 1028.6 - 0.0
26/09:00am 15.0 14.3 12.0 82 1.6 NW 7 9 4 5 1029.1 1029.0 0.0
26/08:30am 13.3 13.5 11.8 91 0.8 NW 2 7 1 4 1028.9 - 0.0
26/08:00am 11.5 11.3 10.5 94 0.5 NNW 2 7 1 4 1029.1 - 0.0
26/07:30am 9.6 9.4 9.0 96 0.3 CALM 0 0 0 0 1029.0 - 0.0
26/07:00am 8.1 7.5 7.5 96 0.3 CALM 0 0 0 0 1029.0 - 0.0
26/06:30am 8.3 6.1 7.9 97 0.2 WSW 9 9 5 5 1028.9 - 0.0
26/06:00am 8.1 7.6 7.7 97 0.2 CALM 0 0 0 0 1028.4 1028.3 0.0
26/05:30am 8.4 7.9 8.0 97 0.2 CALM 0 0 0 0 1028.4 - 0.0
26/05:03am 8.8 7.1 8.2 96 0.3 WNW 7 9 4 5 1028.2 - 0.0
26/05:00am 8.7 7.0 8.3 97 0.2 WNW 7 9 4 5 1028.3 - 0.0
26/04:30am 8.4 6.2 8.0 97 0.2 NW 9 9 5 5 1028.0 - 0.0
26/04:07am 8.4 6.3 8.2 99 0.1 NW 9 9 5 5 1028.2 - 0.0
26/04:00am 8.0 6.1 7.6 97 0.2 NW 7 9 4 5 1028.1 - 0.0
26/03:41am 8.1 5.9 7.9 99 0.1 NW 9 11 5 6 1028.1 - 0.0
26/03:30am 7.9 5.7 7.7 99 0.1 WSW 9 9 5 5 1028.4 - 0.0
26/03:24am 8.9 7.2 8.5 97 0.2 SSW 7 9 4 5 1028.4 - 0.0
26/03:20am 8.7 6.6 8.3 97 0.2 SSW 9 9 5 5 1028.3 - 0.0
26/03:00am 9.4 9.2 9.0 97 0.2 CALM 0 0 0 0 1028.3 1028.2 0.0
26/02:49am 9.2 9.0 9.2 100 0.0 CALM 0 0 0 0 1028.4 - 0.0
26/02:30am 9.4 9.1 8.8 96 0.3 CALM 0 0 0 0 1028.5 - 0.0
26/02:00am 9.0 8.7 8.6 97 0.2 CALM 0 0 0 0 1028.6 - 0.0
26/01:30am 9.8 8.3 9.2 96 0.3 SSW 7 7 4 4 1028.3 - 0.0
26/01:00am 9.9 8.7 9.5 97 0.2 SSW 6 7 3 4 1028.5 - 0.0
26/12:30am 10.4 9.6 9.8 96 0.3 SSW 4 7 2 4 1028.8 - 0.0
26/12:17am 10.1 10.1 9.7 97 0.2 CALM 0 0 0 0 1028.6 - 0.0
26/12:00am 10.2 10.3 10.0 99 0.1 CALM 0 0 0 0 1028.8 1028.7 0.0
 
Date/Time
EST
Tmp

°C
App
Tmp
°C
Dew
Point
°C
Rel
Hum
%
Delta-T

°C
Wind Press
QNH
hPa
Press
MSL
hPa
Rain
since
9 am
mm
Dir
 
Spd
km/h
Gust
km/h
Spd
kts
Gust
kts
25/11:30pm 11.4 11.7 10.8 96 0.3 CALM 0 0 0 0 1029.0 - 0.0
25/11:00pm 10.2 9.8 9.6 96 0.3 SSW 2 7 1 4 1029.4 - 0.0

Latest Capital City Observations: Canberra | Sydney | Melbourne | Brisbane | Adelaide | Perth | Hobart | Darwin

Other Formats:

Comma delimited format used in spreadsheet applications
http://www.bom.gov.au/fwo/IDQ60901/IDQ60901.94568.axf

JavaScript Object Notation format (JSON) in row-major order
http://www.bom.gov.au/fwo/IDQ60901/IDQ60901.94568.json